sensor_id;sensor_type;location;lat;lon;timestamp;P1;durP1;ratioP1;P2;durP2;ratioP2
68812;SDS011;55808;48.112;11.552;2022-12-07T00:01:24;133.45;;;94.45;;
68812;SDS011;55808;48.112;11.552;2022-12-07T00:03:52;122.47;;;94.47;;
68812;SDS011;55808;48.112;11.552;2022-12-07T00:06:22;130.48;;;96.95;;
68812;SDS011;55808;48.112;11.552;2022-12-07T00:08:47;127.70;;;96.57;;
68812;SDS011;55808;48.112;11.552;2022-12-07T00:11:17;141.23;;;98.73;;
68812;SDS011;55808;48.112;11.552;2022-12-07T00:13:45;123.57;;;95.55;;
68812;SDS011;55808;48.112;11.552;2022-12-07T00:16:13;144.98;;;98.57;;
68812;SDS011;55808;48.112;11.552;2022-12-07T00:18:40;129.30;;;95.88;;
68812;SDS011;55808;48.112;11.552;2022-12-07T00:21:10;151.80;;;100.93;;
68812;SDS011;55808;48.112;11.552;2022-12-07T00:23:37;131.48;;;97.45;;
68812;SDS011;55808;48.112;11.552;2022-12-07T00:26:05;138.48;;;99.68;;
68812;SDS011;55808;48.112;11.552;2022-12-07T00:28:30;153.80;;;102.40;;
68812;SDS011;55808;48.112;11.552;2022-12-07T00:30:59;146.43;;;100.53;;
68812;SDS011;55808;48.112;11.552;2022-12-07T00:33:29;140.70;;;96.63;;
68812;SDS011;55808;48.112;11.552;2022-12-07T00:35:58;139.23;;;98.50;;
68812;SDS011;55808;48.112;11.552;2022-12-07T00:38:27;136.13;;;97.05;;
68812;SDS011;55808;48.112;11.552;2022-12-07T00:40:57;129.70;;;96.72;;
68812;SDS011;55808;48.112;11.552;2022-12-07T00:43:24;139.45;;;97.25;;
68812;SDS011;55808;48.112;11.552;2022-12-07T00:45:51;144.60;;;99.18;;
68812;SDS011;55808;48.112;11.552;2022-12-07T00:48:17;130.07;;;97.70;;
68812;SDS011;55808;48.112;11.552;2022-12-07T00:50:43;147.87;;;100.33;;
68812;SDS011;55808;48.112;11.552;2022-12-07T00:53:08;152.00;;;100.67;;
68812;SDS011;55808;48.112;11.552;2022-12-07T00:55:34;175.73;;;103.00;;
68812;SDS011;55808;48.112;11.552;2022-12-07T00:58:00;140.15;;;97.35;;
68812;SDS011;55808;48.112;11.552;2022-12-07T01:00:26;137.87;;;98.17;;
68812;SDS011;55808;48.112;11.552;2022-12-07T01:02:51;126.63;;;95.93;;
68812;SDS011;55808;48.112;11.552;2022-12-07T01:05:17;119.80;;;93.63;;
68812;SDS011;55808;48.112;11.552;2022-12-07T01:07:43;131.10;;;95.63;;
68812;SDS011;55808;48.112;11.552;2022-12-07T01:10:09;132.60;;;98.60;;
68812;SDS011;55808;48.112;11.552;2022-12-07T01:12:35;143.63;;;99.07;;
68812;SDS011;55808;48.112;11.552;2022-12-07T01:15:00;130.70;;;97.33;;
68812;SDS011;55808;48.112;11.552;2022-12-07T01:17:26;145.60;;;98.60;;
68812;SDS011;55808;48.112;11.552;2022-12-07T01:19:53;142.23;;;97.45;;
68812;SDS011;55808;48.112;11.552;2022-12-07T01:22:19;121.57;;;94.37;;
68812;SDS011;55808;48.112;11.552;2022-12-07T01:24:44;131.10;;;97.07;;
68812;SDS011;55808;48.112;11.552;2022-12-07T01:27:11;139.93;;;96.93;;
68812;SDS011;55808;48.112;11.552;2022-12-07T01:29:38;126.53;;;97.63;;
68812;SDS011;55808;48.112;11.552;2022-12-07T01:32:03;139.50;;;96.78;;
68812;SDS011;55808;48.112;11.552;2022-12-07T01:34:29;128.90;;;94.63;;
68812;SDS011;55808;48.112;11.552;2022-12-07T01:36:55;144.73;;;96.70;;
68812;SDS011;55808;48.112;11.552;2022-12-07T01:39:20;118.37;;;94.50;;
68812;SDS011;55808;48.112;11.552;2022-12-07T01:41:46;117.13;;;93.57;;
68812;SDS011;55808;48.112;11.552;2022-12-07T01:46:59;124.07;;;93.88;;
68812;SDS011;55808;48.112;11.552;2022-12-07T01:52:20;135.40;;;99.13;;
68812;SDS011;55808;48.112;11.552;2022-12-07T01:54:54;119.78;;;93.05;;
68812;SDS011;55808;48.112;11.552;2022-12-07T01:57:22;132.18;;;95.65;;
68812;SDS011;55808;48.112;11.552;2022-12-07T01:59:49;123.07;;;94.55;;
68812;SDS011;55808;48.112;11.552;2022-12-07T02:02:22;130.82;;;96.53;;
68812;SDS011;55808;48.112;11.552;2022-12-07T02:04:56;130.45;;;96.13;;
68812;SDS011;55808;48.112;11.552;2022-12-07T02:07:23;125.90;;;95.05;;
68812;SDS011;55808;48.112;11.552;2022-12-07T02:09:50;121.60;;;95.50;;
68812;SDS011;55808;48.112;11.552;2022-12-07T02:12:15;117.23;;;93.10;;
68812;SDS011;55808;48.112;11.552;2022-12-07T02:14:41;121.63;;;93.80;;
68812;SDS011;55808;48.112;11.552;2022-12-07T02:25:57;123.45;;;96.97;;
68812;SDS011;55808;48.112;11.552;2022-12-07T02:28:31;120.35;;;93.38;;
68812;SDS011;55808;48.112;11.552;2022-12-07T02:31:04;134.70;;;96.72;;
68812;SDS011;55808;48.112;11.552;2022-12-07T02:33:41;133.35;;;96.78;;
68812;SDS011;55808;48.112;11.552;2022-12-07T02:36:22;125.35;;;95.25;;
68812;SDS011;55808;48.112;11.552;2022-12-07T02:41:29;129.27;;;95.00;;
68812;SDS011;55808;48.112;11.552;2022-12-07T02:44:08;117.43;;;92.70;;
68812;SDS011;55808;48.112;11.552;2022-12-07T02:46:40;120.70;;;94.85;;
68812;SDS011;55808;48.112;11.552;2022-12-07T02:49:09;130.38;;;95.10;;
68812;SDS011;55808;48.112;11.552;2022-12-07T02:51:41;127.05;;;95.00;;
68812;SDS011;55808;48.112;11.552;2022-12-07T02:54:11;124.75;;;95.20;;
68812;SDS011;55808;48.112;11.552;2022-12-07T02:56:49;134.63;;;97.32;;
68812;SDS011;55808;48.112;11.552;2022-12-07T03:07:07;141.90;;;98.20;;
68812;SDS011;55808;48.112;11.552;2022-12-07T03:10:38;122.05;;;95.45;;
68812;SDS011;55808;48.112;11.552;2022-12-07T03:18:13;119.07;;;93.82;;
68812;SDS011;55808;48.112;11.552;2022-12-07T03:20:43;119.55;;;91.55;;
68812;SDS011;55808;48.112;11.552;2022-12-07T03:23:11;121.65;;;95.93;;
68812;SDS011;55808;48.112;11.552;2022-12-07T03:25:41;117.32;;;94.97;;
68812;SDS011;55808;48.112;11.552;2022-12-07T03:28:10;128.95;;;97.38;;
68812;SDS011;55808;48.112;11.552;2022-12-07T03:30:41;115.28;;;93.65;;
68812;SDS011;55808;48.112;11.552;2022-12-07T03:33:33;124.40;;;95.82;;
68812;SDS011;55808;48.112;11.552;2022-12-07T03:36:16;123.18;;;96.65;;
68812;SDS011;55808;48.112;11.552;2022-12-07T03:41:58;131.52;;;95.20;;
68812;SDS011;55808;48.112;11.552;2022-12-07T03:44:26;131.10;;;97.40;;
68812;SDS011;55808;48.112;11.552;2022-12-07T03:46:58;142.50;;;97.85;;
68812;SDS011;55808;48.112;11.552;2022-12-07T03:52:25;137.43;;;98.28;;
68812;SDS011;55808;48.112;11.552;2022-12-07T03:55:14;134.68;;;98.05;;
68812;SDS011;55808;48.112;11.552;2022-12-07T03:57:50;128.95;;;98.28;;
68812;SDS011;55808;48.112;11.552;2022-12-07T04:00:20;117.70;;;93.85;;
68812;SDS011;55808;48.112;11.552;2022-12-07T04:02:47;125.63;;;95.13;;
68812;SDS011;55808;48.112;11.552;2022-12-07T04:05:16;124.30;;;95.22;;
68812;SDS011;55808;48.112;11.552;2022-12-07T04:07:42;117.27;;;94.13;;
68812;SDS011;55808;48.112;11.552;2022-12-07T04:10:08;119.97;;;95.60;;
68812;SDS011;55808;48.112;11.552;2022-12-07T04:12:34;114.47;;;94.25;;
68812;SDS011;55808;48.112;11.552;2022-12-07T04:15:00;122.77;;;96.33;;
68812;SDS011;55808;48.112;11.552;2022-12-07T04:17:25;172.10;;;104.17;;
68812;SDS011;55808;48.112;11.552;2022-12-07T04:19:51;134.53;;;98.10;;
68812;SDS011;55808;48.112;11.552;2022-12-07T04:22:16;126.30;;;94.53;;
68812;SDS011;55808;48.112;11.552;2022-12-07T04:24:42;124.10;;;95.33;;
68812;SDS011;55808;48.112;11.552;2022-12-07T04:27:07;121.57;;;101.07;;
68812;SDS011;55808;48.112;11.552;2022-12-07T04:29:33;126.60;;;104.80;;
68812;SDS011;55808;48.112;11.552;2022-12-07T04:31:59;144.80;;;105.23;;
68812;SDS011;55808;48.112;11.552;2022-12-07T04:34:24;124.03;;;95.53;;
68812;SDS011;55808;48.112;11.552;2022-12-07T04:36:50;155.73;;;100.30;;
68812;SDS011;55808;48.112;11.552;2022-12-07T04:39:20;129.87;;;98.00;;
68812;SDS011;55808;48.112;11.552;2022-12-07T04:41:48;140.27;;;97.70;;
68812;SDS011;55808;48.112;11.552;2022-12-07T04:44:14;126.95;;;96.35;;
68812;SDS011;55808;48.112;11.552;2022-12-07T04:46:41;130.52;;;97.85;;
68812;SDS011;55808;48.112;11.552;2022-12-07T04:49:07;123.67;;;97.70;;
68812;SDS011;55808;48.112;11.552;2022-12-07T04:51:32;133.17;;;98.83;;
68812;SDS011;55808;48.112;11.552;2022-12-07T04:53:58;121.27;;;95.03;;
68812;SDS011;55808;48.112;11.552;2022-12-07T04:56:24;132.07;;;96.97;;
68812;SDS011;55808;48.112;11.552;2022-12-07T04:58:50;133.05;;;97.45;;
68812;SDS011;55808;48.112;11.552;2022-12-07T05:01:17;139.23;;;98.70;;
68812;SDS011;55808;48.112;11.552;2022-12-07T05:03:44;123.45;;;97.57;;
68812;SDS011;55808;48.112;11.552;2022-12-07T05:06:10;126.55;;;97.55;;
68812;SDS011;55808;48.112;11.552;2022-12-07T05:08:36;126.88;;;98.10;;
68812;SDS011;55808;48.112;11.552;2022-12-07T05:11:03;130.25;;;97.65;;
68812;SDS011;55808;48.112;11.552;2022-12-07T05:13:29;130.70;;;97.68;;
68812;SDS011;55808;48.112;11.552;2022-12-07T05:15:55;132.53;;;97.87;;
68812;SDS011;55808;48.112;11.552;2022-12-07T05:18:21;129.10;;;98.37;;
68812;SDS011;55808;48.112;11.552;2022-12-07T05:20:46;127.33;;;95.57;;
68812;SDS011;55808;48.112;11.552;2022-12-07T05:23:12;120.73;;;94.77;;
68812;SDS011;55808;48.112;11.552;2022-12-07T05:25:38;125.90;;;92.27;;
68812;SDS011;55808;48.112;11.552;2022-12-07T05:28:05;138.02;;;99.30;;
68812;SDS011;55808;48.112;11.552;2022-12-07T05:30:31;129.50;;;95.35;;
68812;SDS011;55808;48.112;11.552;2022-12-07T05:32:57;138.23;;;97.90;;
68812;SDS011;55808;48.112;11.552;2022-12-07T05:35:24;138.20;;;98.00;;
68812;SDS011;55808;48.112;11.552;2022-12-07T05:37:49;135.85;;;98.90;;
68812;SDS011;55808;48.112;11.552;2022-12-07T05:40:15;127.67;;;95.93;;
68812;SDS011;55808;48.112;11.552;2022-12-07T05:42:42;116.97;;;95.55;;
68812;SDS011;55808;48.112;11.552;2022-12-07T05:45:08;119.30;;;93.30;;
68812;SDS011;55808;48.112;11.552;2022-12-07T05:47:34;125.63;;;94.20;;
68812;SDS011;55808;48.112;11.552;2022-12-07T05:50:00;132.43;;;95.47;;
68812;SDS011;55808;48.112;11.552;2022-12-07T05:52:26;128.52;;;96.28;;
68812;SDS011;55808;48.112;11.552;2022-12-07T05:54:52;137.93;;;100.63;;
68812;SDS011;55808;48.112;11.552;2022-12-07T05:57:18;139.93;;;97.83;;
68812;SDS011;55808;48.112;11.552;2022-12-07T05:59:43;124.53;;;94.60;;
68812;SDS011;55808;48.112;11.552;2022-12-07T06:02:10;133.87;;;96.33;;
68812;SDS011;55808;48.112;11.552;2022-12-07T06:04:38;117.05;;;94.35;;
68812;SDS011;55808;48.112;11.552;2022-12-07T06:07:08;124.20;;;97.20;;
68812;SDS011;55808;48.112;11.552;2022-12-07T06:09:35;127.78;;;97.75;;
68812;SDS011;55808;48.112;11.552;2022-12-07T06:12:04;137.20;;;99.43;;
68812;SDS011;55808;48.112;11.552;2022-12-07T06:14:50;137.45;;;99.63;;
68812;SDS011;55808;48.112;11.552;2022-12-07T06:17:16;135.27;;;98.95;;
68812;SDS011;55808;48.112;11.552;2022-12-07T06:19:42;120.93;;;96.63;;
68812;SDS011;55808;48.112;11.552;2022-12-07T06:22:07;125.57;;;96.87;;
68812;SDS011;55808;48.112;11.552;2022-12-07T06:24:35;126.38;;;96.68;;
68812;SDS011;55808;48.112;11.552;2022-12-07T06:27:01;142.32;;;99.00;;
68812;SDS011;55808;48.112;11.552;2022-12-07T06:29:27;126.40;;;97.97;;
68812;SDS011;55808;48.112;11.552;2022-12-07T06:31:53;142.60;;;98.93;;
68812;SDS011;55808;48.112;11.552;2022-12-07T06:34:19;135.17;;;99.50;;
68812;SDS011;55808;48.112;11.552;2022-12-07T06:36:47;133.25;;;97.35;;
68812;SDS011;55808;48.112;11.552;2022-12-07T06:39:16;123.60;;;95.22;;
68812;SDS011;55808;48.112;11.552;2022-12-07T06:41:46;130.70;;;98.32;;
68812;SDS011;55808;48.112;11.552;2022-12-07T06:44:12;129.73;;;99.57;;
68812;SDS011;55808;48.112;11.552;2022-12-07T06:46:37;143.03;;;97.90;;
68812;SDS011;55808;48.112;11.552;2022-12-07T06:49:04;127.97;;;98.53;;
68812;SDS011;55808;48.112;11.552;2022-12-07T06:51:30;131.90;;;97.97;;
68812;SDS011;55808;48.112;11.552;2022-12-07T06:53:56;134.48;;;98.45;;
68812;SDS011;55808;48.112;11.552;2022-12-07T06:56:22;129.27;;;96.50;;
68812;SDS011;55808;48.112;11.552;2022-12-07T06:58:48;143.10;;;101.77;;
68812;SDS011;55808;48.112;11.552;2022-12-07T07:01:15;135.50;;;99.25;;
68812;SDS011;55808;48.112;11.552;2022-12-07T07:03:42;133.70;;;97.30;;
68812;SDS011;55808;48.112;11.552;2022-12-07T07:06:08;146.55;;;102.18;;
68812;SDS011;55808;48.112;11.552;2022-12-07T07:08:34;132.93;;;98.30;;
68812;SDS011;55808;48.112;11.552;2022-12-07T07:11:01;135.50;;;99.05;;
68812;SDS011;55808;48.112;11.552;2022-12-07T07:13:26;152.10;;;100.97;;
68812;SDS011;55808;48.112;11.552;2022-12-07T07:15:52;131.77;;;96.38;;
68812;SDS011;55808;48.112;11.552;2022-12-07T07:18:18;144.38;;;99.00;;
68812;SDS011;55808;48.112;11.552;2022-12-07T07:20:44;134.43;;;98.13;;
68812;SDS011;55808;48.112;11.552;2022-12-07T07:23:10;142.00;;;100.50;;
68812;SDS011;55808;48.112;11.552;2022-12-07T07:25:35;136.70;;;99.10;;
68812;SDS011;55808;48.112;11.552;2022-12-07T07:28:01;138.97;;;100.10;;
68812;SDS011;55808;48.112;11.552;2022-12-07T07:30:27;148.63;;;99.50;;
68812;SDS011;55808;48.112;11.552;2022-12-07T07:33:00;114.22;;;95.15;;
68812;SDS011;55808;48.112;11.552;2022-12-07T07:35:29;134.88;;;100.97;;
68812;SDS011;55808;48.112;11.552;2022-12-07T07:37:56;131.68;;;100.18;;
68812;SDS011;55808;48.112;11.552;2022-12-07T07:40:22;137.90;;;99.82;;
68812;SDS011;55808;48.112;11.552;2022-12-07T07:42:49;136.85;;;111.50;;
68812;SDS011;55808;48.112;11.552;2022-12-07T07:45:16;133.40;;;96.78;;
68812;SDS011;55808;48.112;11.552;2022-12-07T07:47:43;140.13;;;109.30;;
68812;SDS011;55808;48.112;11.552;2022-12-07T07:50:09;135.33;;;105.13;;
68812;SDS011;55808;48.112;11.552;2022-12-07T07:52:35;143.05;;;104.10;;
68812;SDS011;55808;48.112;11.552;2022-12-07T07:55:01;168.17;;;111.67;;
68812;SDS011;55808;48.112;11.552;2022-12-07T07:57:27;147.38;;;107.97;;
68812;SDS011;55808;48.112;11.552;2022-12-07T07:59:53;145.93;;;109.70;;
68812;SDS011;55808;48.112;11.552;2022-12-07T08:02:19;142.87;;;109.50;;
68812;SDS011;55808;48.112;11.552;2022-12-07T08:04:45;144.80;;;106.68;;
68812;SDS011;55808;48.112;11.552;2022-12-07T08:07:12;95.60;;;87.57;;
68812;SDS011;55808;48.112;11.552;2022-12-07T08:09:38;86.63;;;79.47;;
68812;SDS011;55808;48.112;11.552;2022-12-07T08:12:04;92.80;;;84.33;;
68812;SDS011;55808;48.112;11.552;2022-12-07T08:14:30;91.75;;;83.70;;
68812;SDS011;55808;48.112;11.552;2022-12-07T08:16:56;95.13;;;84.67;;
68812;SDS011;55808;48.112;11.552;2022-12-07T08:19:22;97.43;;;87.05;;
68812;SDS011;55808;48.112;11.552;2022-12-07T08:21:48;96.53;;;86.78;;
68812;SDS011;55808;48.112;11.552;2022-12-07T08:24:14;105.80;;;90.23;;
68812;SDS011;55808;48.112;11.552;2022-12-07T08:26:40;99.53;;;89.10;;
68812;SDS011;55808;48.112;11.552;2022-12-07T08:29:06;98.03;;;88.23;;
68812;SDS011;55808;48.112;11.552;2022-12-07T08:31:31;100.73;;;89.63;;
68812;SDS011;55808;48.112;11.552;2022-12-07T08:33:57;100.83;;;89.77;;
68812;SDS011;55808;48.112;11.552;2022-12-07T08:36:23;106.30;;;92.43;;
68812;SDS011;55808;48.112;11.552;2022-12-07T08:38:48;100.60;;;89.90;;
68812;SDS011;55808;48.112;11.552;2022-12-07T08:41:14;117.70;;;93.20;;
68812;SDS011;55808;48.112;11.552;2022-12-07T08:43:41;106.50;;;91.45;;
68812;SDS011;55808;48.112;11.552;2022-12-07T08:48:36;102.05;;;90.32;;
68812;SDS011;55808;48.112;11.552;2022-12-07T08:51:05;100.60;;;90.03;;
68812;SDS011;55808;48.112;11.552;2022-12-07T08:53:32;101.22;;;89.85;;
68812;SDS011;55808;48.112;11.552;2022-12-07T08:55:59;104.65;;;90.00;;
68812;SDS011;55808;48.112;11.552;2022-12-07T08:58:25;106.93;;;90.27;;
68812;SDS011;55808;48.112;11.552;2022-12-07T09:00:51;110.72;;;92.13;;
68812;SDS011;55808;48.112;11.552;2022-12-07T09:03:17;126.03;;;93.93;;
68812;SDS011;55808;48.112;11.552;2022-12-07T09:05:42;101.17;;;89.27;;
68812;SDS011;55808;48.112;11.552;2022-12-07T09:08:08;100.87;;;89.87;;
68812;SDS011;55808;48.112;11.552;2022-12-07T09:10:34;103.73;;;90.73;;
68812;SDS011;55808;48.112;11.552;2022-12-07T09:12:59;107.97;;;91.77;;
68812;SDS011;55808;48.112;11.552;2022-12-07T09:15:26;142.73;;;96.13;;
68812;SDS011;55808;48.112;11.552;2022-12-07T09:17:52;111.38;;;91.70;;
68812;SDS011;55808;48.112;11.552;2022-12-07T09:20:18;125.30;;;92.40;;
68812;SDS011;55808;48.112;11.552;2022-12-07T09:22:44;131.47;;;95.07;;
68812;SDS011;55808;48.112;11.552;2022-12-07T09:25:09;114.70;;;92.43;;
68812;SDS011;55808;48.112;11.552;2022-12-07T09:27:35;122.70;;;94.53;;
68812;SDS011;55808;48.112;11.552;2022-12-07T09:30:01;111.30;;;91.60;;
68812;SDS011;55808;48.112;11.552;2022-12-07T09:32:27;114.75;;;93.97;;
68812;SDS011;55808;48.112;11.552;2022-12-07T09:34:53;113.77;;;93.30;;
68812;SDS011;55808;48.112;11.552;2022-12-07T09:37:19;113.73;;;92.37;;
68812;SDS011;55808;48.112;11.552;2022-12-07T09:39:44;117.70;;;94.50;;
68812;SDS011;55808;48.112;11.552;2022-12-07T09:42:10;117.30;;;95.07;;
68812;SDS011;55808;48.112;11.552;2022-12-07T09:44:50;123.28;;;94.07;;
68812;SDS011;55808;48.112;11.552;2022-12-07T09:47:15;125.70;;;96.03;;
68812;SDS011;55808;48.112;11.552;2022-12-07T09:49:41;110.07;;;90.00;;
68812;SDS011;55808;48.112;11.552;2022-12-07T09:54:33;119.00;;;93.97;;
68812;SDS011;55808;48.112;11.552;2022-12-07T09:57:01;119.15;;;92.55;;
68812;SDS011;55808;48.112;11.552;2022-12-07T09:59:27;112.43;;;92.67;;
68812;SDS011;55808;48.112;11.552;2022-12-07T10:01:53;137.13;;;94.83;;
68812;SDS011;55808;48.112;11.552;2022-12-07T10:04:20;127.00;;;94.37;;
68812;SDS011;55808;48.112;11.552;2022-12-07T10:06:48;120.20;;;94.50;;
68812;SDS011;55808;48.112;11.552;2022-12-07T10:09:17;110.05;;;90.53;;
68812;SDS011;55808;48.112;11.552;2022-12-07T10:12:04;121.32;;;91.72;;
68812;SDS011;55808;48.112;11.552;2022-12-07T10:14:37;115.75;;;91.93;;
68812;SDS011;55808;48.112;11.552;2022-12-07T10:22:55;113.15;;;91.93;;
68812;SDS011;55808;48.112;11.552;2022-12-07T10:25:31;119.60;;;92.30;;
68812;SDS011;55808;48.112;11.552;2022-12-07T10:30:46;116.57;;;92.32;;
68812;SDS011;55808;48.112;11.552;2022-12-07T10:33:34;118.85;;;93.78;;
68812;SDS011;55808;48.112;11.552;2022-12-07T10:36:20;117.50;;;93.93;;
68812;SDS011;55808;48.112;11.552;2022-12-07T10:39:39;118.70;;;94.80;;
68812;SDS011;55808;48.112;11.552;2022-12-07T10:44:25;123.68;;;96.55;;
68812;SDS011;55808;48.112;11.552;2022-12-07T10:47:00;126.85;;;95.72;;
68812;SDS011;55808;48.112;11.552;2022-12-07T10:53:09;125.13;;;96.00;;
68812;SDS011;55808;48.112;11.552;2022-12-07T11:03:47;128.82;;;95.80;;
68812;SDS011;55808;48.112;11.552;2022-12-07T11:23:53;125.65;;;94.80;;
68812;SDS011;55808;48.112;11.552;2022-12-07T11:37:55;142.70;;;97.10;;
68812;SDS011;55808;48.112;11.552;2022-12-07T11:40:35;140.10;;;97.30;;
68812;SDS011;55808;48.112;11.552;2022-12-07T11:43:09;138.13;;;99.27;;
68812;SDS011;55808;48.112;11.552;2022-12-07T11:45:47;162.57;;;102.80;;
68812;SDS011;55808;48.112;11.552;2022-12-07T11:48:23;171.33;;;105.80;;
68812;SDS011;55808;48.112;11.552;2022-12-07T11:50:59;161.87;;;104.90;;
68812;SDS011;55808;48.112;11.552;2022-12-07T11:53:29;170.53;;;106.63;;
68812;SDS011;55808;48.112;11.552;2022-12-07T12:01:08;156.77;;;103.07;;
68812;SDS011;55808;48.112;11.552;2022-12-07T12:03:47;174.57;;;106.57;;
68812;SDS011;55808;48.112;11.552;2022-12-07T12:06:28;152.27;;;102.90;;
68812;SDS011;55808;48.112;11.552;2022-12-07T12:14:05;137.15;;;99.35;;
68812;SDS011;55808;48.112;11.552;2022-12-07T12:19:36;139.75;;;98.35;;
68812;SDS011;55808;48.112;11.552;2022-12-07T12:22:20;139.52;;;97.85;;
68812;SDS011;55808;48.112;11.552;2022-12-07T12:24:48;157.55;;;101.75;;
68812;SDS011;55808;48.112;11.552;2022-12-07T12:27:34;137.93;;;98.32;;
68812;SDS011;55808;48.112;11.552;2022-12-07T12:30:03;139.50;;;97.40;;
68812;SDS011;55808;48.112;11.552;2022-12-07T12:32:41;138.30;;;99.40;;
68812;SDS011;55808;48.112;11.552;2022-12-07T12:51:42;155.87;;;101.73;;
68812;SDS011;55808;48.112;11.552;2022-12-07T12:59:34;161.73;;;99.90;;
68812;SDS011;55808;48.112;11.552;2022-12-07T13:02:20;148.98;;;99.97;;
68812;SDS011;55808;48.112;11.552;2022-12-07T13:04:50;138.50;;;96.57;;
68812;SDS011;55808;48.112;11.552;2022-12-07T13:13:05;153.15;;;101.55;;
68812;SDS011;55808;48.112;11.552;2022-12-07T13:18:36;141.20;;;100.13;;
68812;SDS011;55808;48.112;11.552;2022-12-07T13:21:39;149.68;;;100.55;;
68812;SDS011;55808;48.112;11.552;2022-12-07T13:23:59;138.38;;;98.93;;
68812;SDS011;55808;48.112;11.552;2022-12-07T13:26:35;144.32;;;99.80;;
68812;SDS011;55808;48.112;11.552;2022-12-07T13:29:16;137.82;;;97.78;;
68812;SDS011;55808;48.112;11.552;2022-12-07T13:31:51;141.40;;;100.22;;
68812;SDS011;55808;48.112;11.552;2022-12-07T13:36:59;144.38;;;99.07;;
68812;SDS011;55808;48.112;11.552;2022-12-07T13:39:53;157.55;;;101.50;;
68812;SDS011;55808;48.112;11.552;2022-12-07T13:42:40;143.35;;;98.82;;
68812;SDS011;55808;48.112;11.552;2022-12-07T13:48:24;152.07;;;100.97;;
68812;SDS011;55808;48.112;11.552;2022-12-07T13:50:58;140.77;;;98.70;;
68812;SDS011;55808;48.112;11.552;2022-12-07T13:53:26;160.90;;;101.43;;
68812;SDS011;55808;48.112;11.552;2022-12-07T13:55:55;148.73;;;100.60;;
68812;SDS011;55808;48.112;11.552;2022-12-07T13:58:25;134.02;;;96.35;;
68812;SDS011;55808;48.112;11.552;2022-12-07T14:00:54;140.27;;;99.20;;
68812;SDS011;55808;48.112;11.552;2022-12-07T14:08:32;144.98;;;100.82;;
68812;SDS011;55808;48.112;11.552;2022-12-07T14:10:57;149.43;;;100.27;;
68812;SDS011;55808;48.112;11.552;2022-12-07T14:13:40;133.80;;;97.22;;
68812;SDS011;55808;48.112;11.552;2022-12-07T14:18:52;142.70;;;97.72;;
68812;SDS011;55808;48.112;11.552;2022-12-07T14:21:20;146.18;;;99.78;;
68812;SDS011;55808;48.112;11.552;2022-12-07T14:26:44;141.55;;;98.38;;
68812;SDS011;55808;48.112;11.552;2022-12-07T14:29:22;140.60;;;98.45;;
68812;SDS011;55808;48.112;11.552;2022-12-07T14:31:56;151.63;;;100.28;;
68812;SDS011;55808;48.112;11.552;2022-12-07T14:34:52;149.38;;;99.25;;
68812;SDS011;55808;48.112;11.552;2022-12-07T14:37:18;138.85;;;98.60;;
68812;SDS011;55808;48.112;11.552;2022-12-07T14:39:44;144.77;;;99.93;;
68812;SDS011;55808;48.112;11.552;2022-12-07T14:42:09;150.90;;;99.33;;
68812;SDS011;55808;48.112;11.552;2022-12-07T14:44:35;147.10;;;100.23;;
68812;SDS011;55808;48.112;11.552;2022-12-07T14:47:01;155.47;;;99.20;;
68812;SDS011;55808;48.112;11.552;2022-12-07T14:49:26;136.70;;;97.50;;
68812;SDS011;55808;48.112;11.552;2022-12-07T14:51:52;139.67;;;98.50;;
68812;SDS011;55808;48.112;11.552;2022-12-07T14:54:18;141.27;;;97.53;;
68812;SDS011;55808;48.112;11.552;2022-12-07T14:56:45;135.82;;;98.45;;
68812;SDS011;55808;48.112;11.552;2022-12-07T14:59:15;140.10;;;99.10;;
68812;SDS011;55808;48.112;11.552;2022-12-07T15:01:41;146.93;;;99.28;;
68812;SDS011;55808;48.112;11.552;2022-12-07T15:04:07;142.60;;;98.93;;
68812;SDS011;55808;48.112;11.552;2022-12-07T15:06:32;143.47;;;98.83;;
68812;SDS011;55808;48.112;11.552;2022-12-07T15:08:59;147.32;;;98.85;;
68812;SDS011;55808;48.112;11.552;2022-12-07T15:11:25;141.87;;;98.33;;
68812;SDS011;55808;48.112;11.552;2022-12-07T15:13:51;129.63;;;96.30;;
68812;SDS011;55808;48.112;11.552;2022-12-07T15:16:36;140.70;;;100.03;;
68812;SDS011;55808;48.112;11.552;2022-12-07T15:19:14;144.32;;;98.22;;
68812;SDS011;55808;48.112;11.552;2022-12-07T15:21:42;135.35;;;96.68;;
68812;SDS011;55808;48.112;11.552;2022-12-07T15:24:09;139.60;;;97.15;;
68812;SDS011;55808;48.112;11.552;2022-12-07T15:26:36;144.95;;;101.38;;
68812;SDS011;55808;48.112;11.552;2022-12-07T15:29:02;153.20;;;99.68;;
68812;SDS011;55808;48.112;11.552;2022-12-07T15:31:28;160.32;;;101.25;;
68812;SDS011;55808;48.112;11.552;2022-12-07T15:33:54;130.97;;;102.03;;
68812;SDS011;55808;48.112;11.552;2022-12-07T15:36:21;128.30;;;94.90;;
68812;SDS011;55808;48.112;11.552;2022-12-07T15:38:52;125.47;;;97.15;;
68812;SDS011;55808;48.112;11.552;2022-12-07T15:41:18;124.32;;;97.20;;
68812;SDS011;55808;48.112;11.552;2022-12-07T15:43:44;137.30;;;98.40;;
68812;SDS011;55808;48.112;11.552;2022-12-07T15:46:32;124.93;;;96.50;;
68812;SDS011;55808;48.112;11.552;2022-12-07T15:49:04;118.95;;;94.93;;
68812;SDS011;55808;48.112;11.552;2022-12-07T15:51:33;130.00;;;95.88;;
68812;SDS011;55808;48.112;11.552;2022-12-07T15:54:02;124.73;;;97.07;;
68812;SDS011;55808;48.112;11.552;2022-12-07T15:56:28;123.90;;;96.68;;
68812;SDS011;55808;48.112;11.552;2022-12-07T15:58:53;121.40;;;97.60;;
68812;SDS011;55808;48.112;11.552;2022-12-07T16:01:21;127.30;;;97.32;;
68812;SDS011;55808;48.112;11.552;2022-12-07T16:03:47;119.30;;;95.27;;
68812;SDS011;55808;48.112;11.552;2022-12-07T16:06:16;129.00;;;99.20;;
68812;SDS011;55808;48.112;11.552;2022-12-07T16:08:45;131.68;;;98.45;;
68812;SDS011;55808;48.112;11.552;2022-12-07T16:11:11;126.25;;;98.32;;
68812;SDS011;55808;48.112;11.552;2022-12-07T16:13:37;129.32;;;97.97;;
68812;SDS011;55808;48.112;11.552;2022-12-07T16:16:08;125.30;;;96.22;;
68812;SDS011;55808;48.112;11.552;2022-12-07T16:18:36;132.02;;;96.70;;
68812;SDS011;55808;48.112;11.552;2022-12-07T16:21:02;139.50;;;99.10;;
68812;SDS011;55808;48.112;11.552;2022-12-07T16:23:28;138.20;;;98.70;;
68812;SDS011;55808;48.112;11.552;2022-12-07T16:25:54;134.88;;;97.70;;
68812;SDS011;55808;48.112;11.552;2022-12-07T16:28:20;129.93;;;96.80;;
68812;SDS011;55808;48.112;11.552;2022-12-07T16:30:45;124.63;;;94.83;;
68812;SDS011;55808;48.112;11.552;2022-12-07T16:33:11;126.47;;;94.80;;
68812;SDS011;55808;48.112;11.552;2022-12-07T16:35:39;142.90;;;98.53;;
68812;SDS011;55808;48.112;11.552;2022-12-07T16:38:06;124.15;;;94.95;;
68812;SDS011;55808;48.112;11.552;2022-12-07T16:40:32;137.98;;;100.05;;